createdAt,value
2022-08-16T00:00:44.470Z,58.52
2022-08-16T00:03:13.417Z,58.48
2022-08-16T00:05:48.509Z,58.43
2022-08-16T00:08:36.179Z,58.43
2022-08-16T00:11:06.888Z,58.65
2022-08-16T00:13:41.650Z,58.91
2022-08-16T00:17:00.718Z,58.99
2022-08-16T00:18:59.832Z,58.78
2022-08-16T00:21:29.153Z,59.01
2022-08-16T00:23:56.581Z,59.52
2022-08-16T00:26:36.452Z,59.17
2022-08-16T00:29:15.673Z,59.64
2022-08-16T00:32:01.212Z,59.68
2022-08-16T00:34:44.607Z,59.26
2022-08-16T00:37:24.682Z,59.53
2022-08-16T00:39:57.099Z,59.87
2022-08-16T00:42:30.434Z,60.50
2022-08-16T00:45:16.686Z,60.07
2022-08-16T00:47:49.465Z,60.85
2022-08-16T00:50:21.905Z,61.25
2022-08-16T00:53:10.912Z,61.58
2022-08-16T00:55:47.065Z,61.42
2022-08-16T00:58:34.658Z,60.87
2022-08-16T01:01:08.383Z,61.01
2022-08-16T01:03:41.714Z,61.21
2022-08-16T01:06:39.916Z,61.48
2022-08-16T01:09:01.641Z,61.61
2022-08-16T01:11:31.380Z,61.38
2022-08-16T01:14:10.307Z,61.24
2022-08-16T01:16:40.218Z,61.41
2022-08-16T01:19:33.740Z,60.96
2022-08-16T01:22:47.632Z,60.70
2022-08-16T01:25:15.107Z,61.20
2022-08-16T01:27:50.299Z,61.58
2022-08-16T01:30:49.687Z,61.48
2022-08-16T01:33:19.965Z,61.06
2022-08-16T01:36:02.011Z,61.54
2022-08-16T01:38:56.916Z,61.73
2022-08-16T01:41:31.283Z,61.90
2022-08-16T01:44:01.138Z,62.09
2022-08-16T01:46:40.797Z,61.97
2022-08-16T01:49:20.559Z,61.78
2022-08-16T01:51:56.168Z,62.12
2022-08-16T01:54:31.015Z,61.60
2022-08-16T01:57:00.148Z,61.80
2022-08-16T01:59:28.863Z,61.59
2022-08-16T02:01:59.701Z,61.72
2022-08-16T02:04:44.595Z,61.37
2022-08-16T02:07:18.678Z,61.71
2022-08-16T02:09:57.031Z,60.97
2022-08-16T02:12:49.855Z,61.29
2022-08-16T02:15:25.382Z,61.16
2022-08-16T02:17:59.090Z,61.06
2022-08-16T02:20:32.899Z,60.70
2022-08-16T02:23:05.859Z,60.67
2022-08-16T02:25:52.675Z,59.99
2022-08-16T02:28:24.891Z,60.33
2022-08-16T02:30:54.047Z,59.91
2022-08-16T02:33:24.766Z,60.07
2022-08-16T02:36:14.265Z,59.57
2022-08-16T02:39:00.957Z,59.67
2022-08-16T02:41:27.797Z,59.51
2022-08-16T02:43:54.619Z,59.90
2022-08-16T02:46:33.294Z,59.97
2022-08-16T02:49:02.262Z,60.01
2022-08-16T02:51:29.427Z,59.29
2022-08-16T02:53:59.193Z,59.63
2022-08-16T02:56:32.305Z,59.12
2022-08-16T02:59:00.308Z,59.73
2022-08-16T03:01:33.544Z,59.33
2022-08-16T03:04:28.981Z,59.67
2022-08-16T03:06:56.362Z,59.60
2022-08-16T03:09:28.841Z,59.41
2022-08-16T03:11:57.167Z,59.17
2022-08-16T03:14:25.339Z,59.15
2022-08-16T03:17:00.298Z,59.61
2022-08-16T03:19:47.619Z,59.42
2022-08-16T03:22:28.426Z,59.36
2022-08-16T03:25:02.891Z,58.84
2022-08-16T03:27:32.282Z,58.94
2022-08-16T03:30:17.376Z,59.05
2022-08-16T03:32:51.386Z,58.23
2022-08-16T03:35:23.830Z,58.02
2022-08-16T03:38:04.930Z,57.67
2022-08-16T03:40:51.876Z,57.02
2022-08-16T03:43:21.471Z,57.13
2022-08-16T03:45:52.694Z,57.19
2022-08-16T03:48:36.661Z,57.09
2022-08-16T03:51:12.390Z,56.96
2022-08-16T03:53:41.726Z,56.44
2022-08-16T03:56:19.609Z,56.85
2022-08-16T03:58:51.095Z,56.55
2022-08-16T04:01:23.010Z,56.08
2022-08-16T04:03:51.494Z,55.82
2022-08-16T04:06:20.710Z,55.54
2022-08-16T04:08:48.204Z,55.47
2022-08-16T04:11:16.394Z,55.25
2022-08-16T04:14:00.997Z,55.63
2022-08-16T04:16:34.476Z,55.22
2022-08-16T04:19:04.431Z,55.15
2022-08-16T04:21:34.836Z,55.10
2022-08-16T04:24:07.841Z,55.51
2022-08-16T04:26:36.304Z,55.29
2022-08-16T04:29:17.016Z,55.63
2022-08-16T04:31:56.601Z,55.46
2022-08-16T04:34:32.331Z,55.12
2022-08-16T04:37:01.015Z,55.26
2022-08-16T04:39:44.922Z,54.99
2022-08-16T04:42:16.082Z,54.99
2022-08-16T04:44:54.537Z,54.31
2022-08-16T04:47:35.469Z,54.48
2022-08-16T04:50:10.765Z,55.02
2022-08-16T04:52:39.010Z,54.54
2022-08-16T04:55:15.218Z,54.62
2022-08-16T04:57:43.616Z,54.38
2022-08-16T05:00:30.932Z,54.37
2022-08-16T05:02:58.905Z,54.50
2022-08-16T05:05:32.651Z,54.64
2022-08-16T05:08:29.870Z,54.81
2022-08-16T05:10:48.755Z,54.63
2022-08-16T05:13:17.651Z,54.60
2022-08-16T05:15:44.794Z,54.50
2022-08-16T05:18:15.784Z,54.37
2022-08-16T05:21:01.372Z,54.36
2022-08-16T05:23:31.728Z,54.24
2022-08-16T05:25:59.860Z,54.08
2022-08-16T05:28:30.961Z,54.02
2022-08-16T05:31:06.729Z,53.96
2022-08-16T05:33:34.038Z,53.95
2022-08-16T05:36:03.660Z,52.95
2022-08-16T05:38:39.006Z,53.11
2022-08-16T05:41:07.520Z,52.52
2022-08-16T05:43:43.438Z,52.58
2022-08-16T05:46:30.467Z,52.34
2022-08-16T05:49:08.576Z,52.66
2022-08-16T05:51:38.501Z,52.51
2022-08-16T05:54:09.638Z,52.59
2022-08-16T05:56:40.183Z,52.14
2022-08-16T05:59:08.198Z,52.12
2022-08-16T06:01:37.805Z,52.66
2022-08-16T06:04:13.728Z,52.32
2022-08-16T06:06:57.391Z,51.99
2022-08-16T06:09:43.444Z,52.17
2022-08-16T06:12:27.446Z,51.82
2022-08-16T06:15:04.264Z,51.96
2022-08-16T06:17:43.915Z,51.99
2022-08-16T06:20:24.088Z,52.06
2022-08-16T06:23:03.241Z,52.02
2022-08-16T06:25:36.008Z,51.52
2022-08-16T06:28:10.144Z,51.61
2022-08-16T06:30:44.073Z,51.73
2022-08-16T06:33:22.185Z,51.93
2022-08-16T06:35:55.324Z,51.60
2022-08-16T06:38:32.881Z,51.18
2022-08-16T06:41:13.744Z,51.29
2022-08-16T06:43:42.041Z,51.18
2022-08-16T06:46:32.027Z,51.05
2022-08-16T06:49:05.460Z,51.07
2022-08-16T06:51:47.980Z,50.67
2022-08-16T06:54:16.926Z,50.74
2022-08-16T06:56:44.292Z,50.89
2022-08-16T06:59:13.359Z,49.99
2022-08-16T07:01:45.193Z,50.10
2022-08-16T07:04:32.653Z,50.66
2022-08-16T07:07:03.005Z,50.15
2022-08-16T07:09:30.645Z,49.68
2022-08-16T07:12:03.200Z,49.44
2022-08-16T07:14:33.352Z,49.52
2022-08-16T07:17:01.278Z,49.38
2022-08-16T07:20:29.990Z,48.83
2022-08-16T07:22:38.410Z,47.71
2022-08-16T07:25:14.713Z,47.85
2022-08-16T07:27:44.361Z,47.75
2022-08-16T07:30:38.457Z,47.46
2022-08-16T07:33:05.823Z,47.65
2022-08-16T07:35:35.306Z,47.37
2022-08-16T07:38:05.046Z,47.48
2022-08-16T07:40:59.202Z,47.64
2022-08-16T07:43:23.721Z,47.21
2022-08-16T07:45:55.782Z,47.57
2022-08-16T07:48:24.096Z,46.65
2022-08-16T07:50:58.402Z,47.31
2022-08-16T07:53:31.223Z,46.27
2022-08-16T07:56:00.752Z,46.49
2022-08-16T07:58:34.858Z,46.26
2022-08-16T08:01:11.039Z,45.68
2022-08-16T08:03:49.001Z,46.14
2022-08-16T08:06:19.415Z,46.11
2022-08-16T08:08:51.668Z,46.24
2022-08-16T08:11:23.694Z,45.68
2022-08-16T08:13:55.828Z,46.14
2022-08-16T08:16:30.363Z,45.68
2022-08-16T08:19:02.756Z,45.55
2022-08-16T08:21:59.087Z,46.02
2022-08-16T08:24:32.330Z,45.00
2022-08-16T08:27:04.038Z,45.04
2022-08-16T08:29:37.665Z,44.42
2022-08-16T08:32:58.397Z,44.75
2022-08-16T08:35:03.123Z,44.60
2022-08-16T08:37:54.325Z,44.74
2022-08-16T08:40:24.488Z,44.20
2022-08-16T08:43:00.876Z,42.97
2022-08-16T08:45:52.964Z,43.27
2022-08-16T08:48:33.977Z,43.26
2022-08-16T08:51:10.147Z,43.39
2022-08-16T08:53:39.796Z,42.96
2022-08-16T08:56:22.610Z,41.63
2022-08-16T08:58:58.176Z,41.92
2022-08-16T09:01:36.793Z,41.38
2022-08-16T09:04:14.470Z,41.80
2022-08-16T09:06:44.541Z,42.73
2022-08-16T09:09:16.803Z,41.70
2022-08-16T09:11:50.944Z,40.97
2022-08-16T09:14:24.330Z,40.83
2022-08-16T09:17:01.128Z,41.12
2022-08-16T09:19:37.268Z,41.48
2022-08-16T09:22:20.667Z,41.08
2022-08-16T09:24:53.302Z,39.88
2022-08-16T09:27:23.527Z,40.36
2022-08-16T09:30:00.414Z,38.57
2022-08-16T09:32:31.703Z,38.68
2022-08-16T09:35:01.659Z,39.12
2022-08-16T09:37:36.543Z,39.10
2022-08-16T09:40:32.369Z,37.66
2022-08-16T09:42:56.362Z,37.88
2022-08-16T09:45:28.900Z,37.28
2022-08-16T09:47:58.360Z,37.27
2022-08-16T09:50:37.102Z,37.17
2022-08-16T09:53:15.418Z,35.91
2022-08-16T09:55:52.410Z,36.35
2022-08-16T09:58:37.741Z,35.48
2022-08-16T10:01:11.408Z,36.25
2022-08-16T10:04:02.233Z,35.43
2022-08-16T10:06:33.499Z,35.54
2022-08-16T10:09:11.234Z,35.61
2022-08-16T10:12:11.543Z,35.50
2022-08-16T10:14:46.360Z,36.13
2022-08-16T10:17:13.916Z,36.73
2022-08-16T10:19:43.366Z,37.16
2022-08-16T10:22:12.825Z,36.78
2022-08-16T10:24:56.113Z,37.50
2022-08-16T10:27:30.109Z,36.25
2022-08-16T10:30:25.055Z,35.72
2022-08-16T10:32:54.060Z,36.43
2022-08-16T10:35:20.987Z,35.63
2022-08-16T10:37:52.326Z,34.84
2022-08-16T10:40:29.066Z,34.98
2022-08-16T10:43:01.987Z,35.11
2022-08-16T10:45:37.197Z,35.64
2022-08-16T10:48:27.556Z,34.07
2022-08-16T10:50:58.669Z,34.27
2022-08-16T10:53:32.637Z,33.77
2022-08-16T10:56:55.380Z,33.03
2022-08-16T10:59:29.624Z,32.65
2022-08-16T11:02:21.876Z,33.07
2022-08-16T11:11:01.899Z,32.45
2022-08-16T11:12:54.363Z,32.09
2022-08-16T11:15:22.509Z,32.22
2022-08-16T11:18:48.878Z,31.97
2022-08-16T11:20:48.740Z,32.32
2022-08-16T11:23:17.869Z,33.01
2022-08-16T11:26:20.672Z,31.76
2022-08-16T11:29:11.863Z,31.78
2022-08-16T11:31:24.796Z,31.61
2022-08-16T11:33:52.724Z,32.60
2022-08-16T11:36:27.387Z,33.15
2022-08-16T11:38:58.864Z,32.11
2022-08-16T11:41:29.492Z,31.68
2022-08-16T11:44:00.078Z,31.82
2022-08-16T11:46:45.344Z,31.44
2022-08-16T11:49:15.150Z,32.23
2022-08-16T11:51:44.489Z,31.52
2022-08-16T11:54:20.932Z,32.26
2022-08-16T11:56:56.831Z,31.90
2022-08-16T11:59:28.890Z,32.20
2022-08-16T12:01:59.399Z,31.25
2022-08-16T12:04:27.903Z,31.50
2022-08-16T12:06:55.070Z,32.26
2022-08-16T12:09:24.732Z,31.67
2022-08-16T12:11:52.515Z,31.66
2022-08-16T12:14:23.025Z,30.48
2022-08-16T12:16:57.014Z,30.25
2022-08-16T12:19:33.814Z,29.94
2022-08-16T12:22:05.772Z,30.19
2022-08-16T12:24:47.952Z,29.74
2022-08-16T12:27:25.246Z,29.87
2022-08-16T12:29:54.733Z,29.93
2022-08-16T12:32:37.937Z,30.05
2022-08-16T12:35:19.393Z,30.01
2022-08-16T12:37:49.501Z,29.58
2022-08-16T12:40:29.899Z,30.28
2022-08-16T12:43:00.709Z,30.00
2022-08-16T12:45:37.917Z,29.84
2022-08-16T12:48:34.789Z,30.59
2022-08-16T12:51:13.575Z,30.26
2022-08-16T12:53:53.219Z,30.03
2022-08-16T12:56:26.161Z,30.28
2022-08-16T12:58:56.062Z,29.61
2022-08-16T13:01:31.023Z,29.71
2022-08-16T13:04:11.791Z,29.75
2022-08-16T13:06:48.532Z,29.59
2022-08-16T13:09:26.577Z,29.66
2022-08-16T13:12:05.637Z,30.32
2022-08-16T13:14:40.171Z,29.72
2022-08-16T13:17:18.722Z,29.63
2022-08-16T13:25:09.513Z,30.05
2022-08-16T13:28:02.927Z,28.66
2022-08-16T13:30:35.854Z,28.78
2022-08-16T13:33:10.765Z,28.71
2022-08-16T13:35:44.585Z,28.96
2022-08-16T13:38:24.266Z,28.69
2022-08-16T13:40:56.596Z,29.05
2022-08-16T13:43:27.215Z,29.73
2022-08-16T13:45:56.860Z,29.64
2022-08-16T13:48:43.090Z,29.81
2022-08-16T13:51:19.427Z,28.76
2022-08-16T13:53:59.228Z,28.93
2022-08-16T13:56:36.808Z,28.70
2022-08-16T13:59:16.597Z,28.97
2022-08-16T14:01:55.422Z,29.23
2022-08-16T14:04:35.543Z,29.27
2022-08-16T14:07:07.765Z,29.43
2022-08-16T14:09:36.465Z,30.02
2022-08-16T14:12:17.809Z,29.49
2022-08-16T14:14:46.740Z,28.99
2022-08-16T14:17:16.585Z,28.64
2022-08-16T14:19:46.040Z,28.64
2022-08-16T14:22:31.518Z,29.39
2022-08-16T14:25:03.310Z,29.13
2022-08-16T14:27:34.535Z,28.72
2022-08-16T14:30:09.839Z,29.02
2022-08-16T14:32:37.381Z,29.04
2022-08-16T14:35:15.084Z,28.71
2022-08-16T14:37:43.140Z,29.03
2022-08-16T14:40:15.254Z,28.33
2022-08-16T14:42:46.464Z,28.78
2022-08-16T14:45:21.216Z,28.49
2022-08-16T14:47:49.709Z,29.72
2022-08-16T14:50:21.628Z,29.34
2022-08-16T14:52:59.578Z,29.01
2022-08-16T14:55:32.160Z,29.04
2022-08-16T14:58:00.011Z,29.76
2022-08-16T15:00:34.060Z,29.49
2022-08-16T15:03:09.712Z,29.33
2022-08-16T15:05:39.805Z,29.65
2022-08-16T15:08:07.672Z,29.54
2022-08-16T15:10:37.410Z,30.38
2022-08-16T15:13:11.147Z,30.27
2022-08-16T15:15:40.501Z,30.17
2022-08-16T15:18:11.727Z,30.06
2022-08-16T15:20:41.463Z,29.41
2022-08-16T15:23:10.720Z,29.86
2022-08-16T15:25:42.302Z,29.65
2022-08-16T15:28:31.236Z,29.44
2022-08-16T15:31:03.798Z,29.97
2022-08-16T15:33:35.299Z,28.90
2022-08-16T15:36:04.812Z,29.43
2022-08-16T15:39:02.734Z,29.67
2022-08-16T15:42:01.170Z,29.37
2022-08-16T15:44:42.707Z,28.95
2022-08-16T15:47:18.541Z,28.22
2022-08-16T15:49:53.097Z,28.21
2022-08-16T15:52:42.614Z,28.61
2022-08-16T15:55:23.649Z,28.30
2022-08-16T15:57:51.624Z,28.05
2022-08-16T16:00:20.710Z,27.78
2022-08-16T16:02:49.487Z,27.69
2022-08-16T16:05:18.928Z,28.00
2022-08-16T16:07:56.290Z,27.40
2022-08-16T16:10:29.509Z,26.55
2022-08-16T16:13:03.752Z,25.68
2022-08-16T16:15:45.772Z,25.35
2022-08-16T16:18:14.666Z,24.84
2022-08-16T16:20:53.777Z,25.47
2022-08-16T16:23:32.465Z,25.17
2022-08-16T16:26:05.762Z,25.01
2022-08-16T16:29:06.497Z,25.06
2022-08-16T16:31:22.000Z,25.62
2022-08-16T16:33:55.749Z,25.71
2022-08-16T16:36:29.304Z,26.69
2022-08-16T16:38:56.692Z,26.46
2022-08-16T16:41:28.817Z,26.85
2022-08-16T16:43:59.429Z,27.21
2022-08-16T16:46:41.273Z,27.74
2022-08-16T16:49:14.065Z,28.07
2022-08-16T16:51:47.153Z,28.16
2022-08-16T16:54:27.734Z,28.18
2022-08-16T16:56:58.229Z,28.96
2022-08-16T16:59:28.410Z,27.50
2022-08-16T17:02:38.327Z,27.47
2022-08-16T17:04:47.577Z,27.28
2022-08-16T17:07:15.113Z,27.48
2022-08-16T17:09:42.059Z,27.82
2022-08-16T17:12:14.522Z,28.08
2022-08-16T17:14:54.987Z,28.56
2022-08-16T17:17:23.115Z,28.74
2022-08-16T17:19:50.179Z,28.16
2022-08-16T17:22:22.134Z,28.19
2022-08-16T17:24:52.817Z,29.01
2022-08-16T17:27:33.913Z,28.96
2022-08-16T17:30:15.639Z,28.88
2022-08-16T17:32:50.758Z,29.30
2022-08-16T17:35:34.212Z,29.18
2022-08-16T17:38:09.358Z,29.91
2022-08-16T17:40:57.833Z,29.95
2022-08-16T17:43:37.241Z,29.67
2022-08-16T17:46:51.556Z,29.22
2022-08-16T17:49:05.272Z,29.47
2022-08-16T17:51:34.173Z,29.63
2022-08-16T17:54:03.472Z,30.25
2022-08-16T17:56:30.615Z,30.09
2022-08-16T17:58:57.653Z,29.80
2022-08-16T18:01:27.834Z,31.51
2022-08-16T18:04:06.615Z,31.67
2022-08-16T18:06:37.150Z,31.54
2022-08-16T18:09:04.885Z,32.20
2022-08-16T18:11:40.969Z,32.60
2022-08-16T18:14:11.235Z,32.66
2022-08-16T18:16:38.848Z,32.75
2022-08-16T18:19:05.993Z,32.82
2022-08-16T18:21:51.713Z,32.92
2022-08-16T18:24:19.429Z,32.56
2022-08-16T18:26:47.195Z,33.04
2022-08-16T18:29:14.174Z,33.21
2022-08-16T18:31:42.392Z,32.96
2022-08-16T18:34:10.256Z,33.35
2022-08-16T18:36:37.241Z,33.46
2022-08-16T18:39:04.307Z,33.77
2022-08-16T18:41:33.786Z,34.05
2022-08-16T18:44:24.808Z,33.98
2022-08-16T18:46:50.798Z,33.79
2022-08-16T18:49:19.639Z,33.75
2022-08-16T18:51:48.227Z,34.01
2022-08-16T18:54:19.960Z,34.47
2022-08-16T18:56:55.385Z,34.20
2022-08-16T18:59:30.537Z,33.93
2022-08-16T19:02:05.027Z,34.25
2022-08-16T19:04:56.721Z,34.14
2022-08-16T19:07:30.419Z,34.66
2022-08-16T19:10:02.304Z,34.51
2022-08-16T19:12:37.740Z,34.35
2022-08-16T19:15:20.224Z,34.38
2022-08-16T19:17:48.030Z,35.11
2022-08-16T19:20:20.273Z,35.02
2022-08-16T19:23:04.705Z,35.28
2022-08-16T19:25:49.127Z,34.94
2022-08-16T19:28:49.360Z,35.48
2022-08-16T19:31:31.175Z,35.54
2022-08-16T19:33:59.841Z,35.10
2022-08-16T19:36:35.346Z,36.19
2022-08-16T19:39:15.018Z,35.75
2022-08-16T19:41:53.146Z,36.05
2022-08-16T19:44:23.337Z,35.80
2022-08-16T19:46:50.898Z,36.17
2022-08-16T19:49:21.667Z,36.24
2022-08-16T19:51:48.862Z,36.45
2022-08-16T19:54:17.556Z,36.28
2022-08-16T19:56:44.778Z,36.15
2022-08-16T19:59:21.005Z,36.47
2022-08-16T20:01:55.306Z,36.31
2022-08-16T20:04:23.628Z,36.99
2022-08-16T20:06:53.249Z,37.06
2022-08-16T20:09:24.706Z,36.72
2022-08-16T20:11:54.392Z,36.82
2022-08-16T20:14:25.246Z,37.30
2022-08-16T20:16:57.494Z,37.24
2022-08-16T20:19:27.767Z,37.52
2022-08-16T20:21:56.558Z,37.24
2022-08-16T20:24:39.672Z,37.42
2022-08-16T20:27:09.817Z,37.48
2022-08-16T20:29:40.978Z,37.68
2022-08-16T20:32:12.132Z,36.85
2022-08-16T20:34:44.366Z,37.21
2022-08-16T20:37:12.815Z,36.95
2022-08-16T20:39:40.590Z,36.93
2022-08-16T20:42:08.091Z,37.21
2022-08-16T20:44:34.953Z,37.22
2022-08-16T20:47:01.785Z,37.00
2022-08-16T20:49:29.030Z,37.76
2022-08-16T20:51:59.351Z,37.82
2022-08-16T20:54:29.431Z,38.34
2022-08-16T20:56:56.947Z,37.19
2022-08-16T20:59:24.010Z,37.71
2022-08-16T21:01:51.090Z,37.58
2022-08-16T21:04:22.631Z,37.49
2022-08-16T21:06:53.622Z,38.50
2022-08-16T21:09:28.854Z,38.50
2022-08-16T21:11:59.073Z,38.77
2022-08-16T21:14:27.841Z,38.04
2022-08-16T21:16:55.927Z,37.81
2022-08-16T21:19:23.103Z,38.19
2022-08-16T21:21:50.246Z,38.39
2022-08-16T21:24:17.339Z,38.55
2022-08-16T21:26:55.175Z,38.48
2022-08-16T21:29:28.469Z,38.78
2022-08-16T21:32:15.134Z,38.57
2022-08-16T21:34:43.259Z,38.58
2022-08-16T21:37:11.722Z,38.43
2022-08-16T21:39:42.475Z,38.84
2022-08-16T21:42:17.163Z,39.17
2022-08-16T21:44:45.037Z,39.20
2022-08-16T21:47:12.432Z,39.08
2022-08-16T21:49:40.113Z,39.51
2022-08-16T21:52:09.494Z,39.13
2022-08-16T21:54:52.115Z,39.67
2022-08-16T21:57:23.150Z,39.79
2022-08-16T21:59:52.317Z,40.20
2022-08-16T22:02:22.978Z,40.16
2022-08-16T22:04:50.386Z,40.39
2022-08-16T22:07:18.270Z,40.38
2022-08-16T22:09:48.623Z,40.55
2022-08-16T22:12:27.416Z,40.28
2022-08-16T22:14:54.939Z,41.04
2022-08-16T22:17:21.847Z,41.23
2022-08-16T22:19:48.769Z,41.10
2022-08-16T22:22:15.819Z,40.78
2022-08-16T22:24:42.631Z,41.02
2022-08-16T22:27:09.633Z,40.91
2022-08-16T22:29:38.237Z,41.15
2022-08-16T22:32:09.332Z,41.40
2022-08-16T22:34:36.151Z,41.31
2022-08-16T22:37:03.302Z,40.49
2022-08-16T22:39:30.311Z,41.24
2022-08-16T22:41:57.210Z,41.25
2022-08-16T22:44:24.693Z,41.18
2022-08-16T22:46:51.578Z,40.81
2022-08-16T22:49:18.865Z,41.21
2022-08-16T22:51:46.400Z,41.71
2022-08-16T22:54:43.775Z,41.93
2022-08-16T22:57:00.682Z,41.69
2022-08-16T22:59:30.331Z,41.87
2022-08-16T23:01:57.997Z,41.50
2022-08-16T23:04:25.524Z,42.13
2022-08-16T23:06:52.680Z,41.92
2022-08-16T23:09:19.677Z,42.55
2022-08-16T23:11:46.757Z,42.74
2022-08-16T23:14:13.762Z,42.62
2022-08-16T23:16:40.573Z,43.14
2022-08-16T23:19:13.241Z,43.40
2022-08-16T23:21:44.624Z,42.90
2022-08-16T23:24:13.263Z,43.02
2022-08-16T23:26:45.900Z,42.85
2022-08-16T23:29:26.278Z,42.90
2022-08-16T23:32:10.857Z,43.13
2022-08-16T23:34:38.420Z,43.04
2022-08-16T23:37:06.530Z,43.14
2022-08-16T23:39:33.653Z,43.14
2022-08-16T23:42:01.293Z,42.61
2022-08-16T23:44:42.379Z,43.17
2022-08-16T23:47:15.046Z,42.90
2022-08-16T23:49:59.556Z,42.99
2022-08-16T23:52:42.142Z,42.76
2022-08-16T23:55:16.348Z,43.12
2022-08-16T23:57:45.107Z,43.54
